sensor_id;sensor_type;location;lat;lon;timestamp;pressure;altitude;pressure_sealevel;temperature;humidity
54816;BME280;40715;55.752;37.884;2022-08-11T08:23:07;100063.81;;;64.20;1.35
54816;BME280;40715;55.752;37.884;2022-08-11T08:25:35;100068.13;;;65.09;1.73
54816;BME280;40715;55.752;37.884;2022-08-11T08:28:16;100067.69;;;65.51;1.16
54816;BME280;40715;55.752;37.884;2022-08-11T08:30:45;100069.50;;;66.69;1.04
54816;BME280;40715;55.752;37.884;2022-08-11T08:33:26;100058.84;;;66.66;0.73
54816;BME280;40715;55.752;37.884;2022-08-11T08:36:00;100062.25;;;67.30;0.24
54816;BME280;40715;55.752;37.884;2022-08-11T08:38:39;100066.31;;;67.43;0.09
54816;BME280;40715;55.752;37.884;2022-08-11T08:41:07;100041.69;;;63.60;0.96
54816;BME280;40715;55.752;37.884;2022-08-11T08:43:35;100038.72;;;62.60;1.32
54816;BME280;40715;55.752;37.884;2022-08-11T08:46:14;100018.16;;;60.96;1.69
54816;BME280;40715;55.752;37.884;2022-08-11T08:48:43;99992.19;;;55.31;4.20
54816;BME280;40715;55.752;37.884;2022-08-11T08:51:12;100002.41;;;50.46;5.79
54816;BME280;40715;55.752;37.884;2022-08-11T08:54:31;99995.41;;;45.14;8.23
54816;BME280;40715;55.752;37.884;2022-08-11T08:57:00;100002.19;;;46.51;8.22
54816;BME280;40715;55.752;37.884;2022-08-11T08:59:35;99995.72;;;51.89;5.99
54816;BME280;40715;55.752;37.884;2022-08-11T09:02:05;100028.16;;;56.84;4.36
54816;BME280;40715;55.752;37.884;2022-08-11T09:04:33;100033.56;;;60.10;2.25
54816;BME280;40715;55.752;37.884;2022-08-11T09:07:07;100014.81;;;57.02;2.99
54816;BME280;40715;55.752;37.884;2022-08-11T09:09:35;100006.94;;;51.70;4.97
54816;BME280;40715;55.752;37.884;2022-08-11T09:12:02;100005.22;;;49.91;6.02
54816;BME280;40715;55.752;37.884;2022-08-11T09:14:36;100008.56;;;53.79;4.79
54816;BME280;40715;55.752;37.884;2022-08-11T09:17:23;100013.13;;;58.51;3.23
54816;BME280;40715;55.752;37.884;2022-08-11T09:19:56;100021.63;;;62.24;2.03
54816;BME280;40715;55.752;37.884;2022-08-11T09:22:29;100035.91;;;64.81;1.41
54816;BME280;40715;55.752;37.884;2022-08-11T09:25:36;100048.16;;;66.52;0.00
54816;BME280;40715;55.752;37.884;2022-08-11T09:28:22;100051.94;;;68.61;0.00
54816;BME280;40715;55.752;37.884;2022-08-11T09:30:51;100054.84;;;69.62;0.00
54816;BME280;40715;55.752;37.884;2022-08-11T09:33:22;100045.00;;;69.90;0.00
54816;BME280;40715;55.752;37.884;2022-08-11T09:35:51;100047.66;;;70.08;0.00
54816;BME280;40715;55.752;37.884;2022-08-11T09:38:21;100041.81;;;70.47;0.00
54816;BME280;40715;55.752;37.884;2022-08-11T09:41:13;100035.94;;;69.92;0.00
54816;BME280;40715;55.752;37.884;2022-08-11T09:43:45;100033.56;;;69.45;0.00
54816;BME280;40715;55.752;37.884;2022-08-11T09:46:32;100030.63;;;68.44;0.00
54816;BME280;40715;55.752;37.884;2022-08-11T09:49:00;100025.25;;;67.53;0.00
54816;BME280;40715;55.752;37.884;2022-08-11T09:51:30;100004.97;;;64.94;0.20
54816;BME280;40715;55.752;37.884;2022-08-11T09:54:02;99985.28;;;60.26;2.16
54816;BME280;40715;55.752;37.884;2022-08-11T09:56:33;99965.59;;;55.90;3.84
54816;BME280;40715;55.752;37.884;2022-08-11T09:59:20;99974.38;;;51.64;5.00
54816;BME280;40715;55.752;37.884;2022-08-11T10:01:57;99964.47;;;47.99;6.34
54816;BME280;40715;55.752;37.884;2022-08-11T10:04:30;99963.53;;;45.22;7.99
54816;BME280;40715;55.752;37.884;2022-08-11T10:07:02;99968.03;;;42.79;9.17
54816;BME280;40715;55.752;37.884;2022-08-11T10:09:48;99963.38;;;41.01;10.83
54816;BME280;40715;55.752;37.884;2022-08-11T10:12:25;99957.94;;;39.65;11.64
54816;BME280;40715;55.752;37.884;2022-08-11T10:14:56;99961.13;;;38.48;12.56
54816;BME280;40715;55.752;37.884;2022-08-11T10:17:45;99963.56;;;37.33;12.93
54816;BME280;40715;55.752;37.884;2022-08-11T10:20:35;99961.16;;;36.15;13.95
54816;BME280;40715;55.752;37.884;2022-08-11T10:23:04;99958.19;;;35.12;14.76
54816;BME280;40715;55.752;37.884;2022-08-11T10:25:49;99962.00;;;34.10;15.67
54816;BME280;40715;55.752;37.884;2022-08-11T10:28:35;99953.88;;;33.20;16.00
54816;BME280;40715;55.752;37.884;2022-08-11T10:31:23;99970.78;;;32.50;16.73
54816;BME280;40715;55.752;37.884;2022-08-11T10:34:10;99971.09;;;31.88;17.44
54816;BME280;40715;55.752;37.884;2022-08-11T10:36:40;99966.84;;;31.32;18.18
54816;BME280;40715;55.752;37.884;2022-08-11T10:39:18;99971.44;;;30.88;18.92
54816;BME280;40715;55.752;37.884;2022-08-11T10:41:47;99960.56;;;30.70;18.94
54816;BME280;40715;55.752;37.884;2022-08-11T10:44:41;99959.56;;;30.53;18.96
54816;BME280;40715;55.752;37.884;2022-08-11T10:47:13;99943.47;;;30.41;19.06
54816;BME280;40715;55.752;37.884;2022-08-11T10:50:10;99950.66;;;30.33;18.90
54816;BME280;40715;55.752;37.884;2022-08-11T10:52:58;99948.81;;;30.15;18.99
54816;BME280;40715;55.752;37.884;2022-08-11T10:55:45;99945.59;;;30.02;19.14
54816;BME280;40715;55.752;37.884;2022-08-11T10:58:31;99937.19;;;29.95;19.17
54816;BME280;40715;55.752;37.884;2022-08-11T11:01:15;99906.44;;;29.67;19.57
54816;BME280;40715;55.752;37.884;2022-08-11T11:03:45;99926.19;;;29.69;19.76
54816;BME280;40715;55.752;37.884;2022-08-11T11:09:12;99923.94;;;29.54;19.98
54816;BME280;40715;55.752;37.884;2022-08-11T11:11:48;99920.63;;;29.60;20.17
54816;BME280;40715;55.752;37.884;2022-08-11T11:14:35;99922.22;;;29.63;20.44
54816;BME280;40715;55.752;37.884;2022-08-11T11:17:39;99922.94;;;29.55;20.77
54816;BME280;40715;55.752;37.884;2022-08-11T11:20:25;99922.00;;;29.37;20.90
54816;BME280;40715;55.752;37.884;2022-08-11T11:35:23;99924.38;;;29.02;21.69
54816;BME280;40715;55.752;37.884;2022-08-11T11:37:54;99909.56;;;28.77;21.91
54816;BME280;40715;55.752;37.884;2022-08-11T11:40:33;99923.56;;;28.63;22.23
54816;BME280;40715;55.752;37.884;2022-08-11T11:43:01;99928.69;;;28.46;22.34
54816;BME280;40715;55.752;37.884;2022-08-11T11:45:28;99926.09;;;28.45;22.60
54816;BME280;40715;55.752;37.884;2022-08-11T11:47:58;99908.44;;;28.31;22.66
54816;BME280;40715;55.752;37.884;2022-08-11T11:50:32;99926.25;;;28.33;23.00
54816;BME280;40715;55.752;37.884;2022-08-11T11:53:05;99925.84;;;28.38;22.87
54816;BME280;40715;55.752;37.884;2022-08-11T11:55:34;99918.41;;;28.40;22.62
54816;BME280;40715;55.752;37.884;2022-08-11T11:58:03;99921.13;;;28.40;22.75
54816;BME280;40715;55.752;37.884;2022-08-11T12:01:12;99842.06;;;27.96;22.75
54816;BME280;40715;55.752;37.884;2022-08-11T12:04:22;99910.88;;;28.44;22.52
54816;BME280;40715;55.752;37.884;2022-08-11T12:06:50;99876.22;;;28.18;22.74
54816;BME280;40715;55.752;37.884;2022-08-11T12:09:38;99912.00;;;28.31;22.82
54816;BME280;40715;55.752;37.884;2022-08-11T12:12:07;99907.53;;;28.20;22.69
54816;BME280;40715;55.752;37.884;2022-08-11T12:14:53;99910.25;;;28.01;23.20
54816;BME280;40715;55.752;37.884;2022-08-11T12:17:21;99903.06;;;27.90;23.05
54816;BME280;40715;55.752;37.884;2022-08-11T12:19:49;99896.63;;;27.81;23.28
54816;BME280;40715;55.752;37.884;2022-08-11T12:22:21;99903.59;;;27.74;23.19
54816;BME280;40715;55.752;37.884;2022-08-11T12:25:08;99893.63;;;27.75;23.10
54816;BME280;40715;55.752;37.884;2022-08-11T12:27:57;99899.94;;;27.85;23.16
54816;BME280;40715;55.752;37.884;2022-08-11T12:30:24;99890.94;;;27.84;23.09
54816;BME280;40715;55.752;37.884;2022-08-11T12:32:52;99898.63;;;27.89;23.02
54816;BME280;40715;55.752;37.884;2022-08-11T12:35:19;99904.50;;;27.94;23.17
54816;BME280;40715;55.752;37.884;2022-08-11T12:37:51;99903.13;;;28.00;23.08
54816;BME280;40715;55.752;37.884;2022-08-11T12:40:29;99896.28;;;28.05;23.27
54816;BME280;40715;55.752;37.884;2022-08-11T12:43:36;99896.00;;;28.09;22.84
54816;BME280;40715;55.752;37.884;2022-08-11T12:46:26;99897.84;;;28.08;22.89
54816;BME280;40715;55.752;37.884;2022-08-11T12:48:57;99899.13;;;28.04;23.24
54816;BME280;40715;55.752;37.884;2022-08-11T12:51:51;99895.00;;;28.00;23.29
54816;BME280;40715;55.752;37.884;2022-08-11T13:00:09;99904.06;;;27.79;23.63
54816;BME280;40715;55.752;37.884;2022-08-11T13:02:55;99900.88;;;27.74;23.89
54816;BME280;40715;55.752;37.884;2022-08-11T13:05:42;99901.19;;;27.71;23.81
54816;BME280;40715;55.752;37.884;2022-08-11T13:08:11;99898.88;;;27.66;23.70
54816;BME280;40715;55.752;37.884;2022-08-11T13:10:41;99896.28;;;27.65;23.83
54816;BME280;40715;55.752;37.884;2022-08-11T13:13:27;99859.34;;;27.44;23.64
54816;BME280;40715;55.752;37.884;2022-08-11T13:16:16;99897.13;;;27.55;23.87
54816;BME280;40715;55.752;37.884;2022-08-11T13:18:44;99887.84;;;27.48;24.03
54816;BME280;40715;55.752;37.884;2022-08-11T13:21:11;99891.13;;;27.42;24.19
54816;BME280;40715;55.752;37.884;2022-08-11T13:23:45;99892.38;;;27.38;24.51
54816;BME280;40715;55.752;37.884;2022-08-11T13:26:29;99888.66;;;27.39;24.52
54816;BME280;40715;55.752;37.884;2022-08-11T13:29:09;99884.41;;;27.36;24.46
54816;BME280;40715;55.752;37.884;2022-08-11T13:31:37;99886.97;;;27.38;24.32
54816;BME280;40715;55.752;37.884;2022-08-11T13:34:05;99888.13;;;27.45;24.37
54816;BME280;40715;55.752;37.884;2022-08-11T13:36:34;99886.53;;;27.43;24.66
54816;BME280;40715;55.752;37.884;2022-08-11T13:39:02;99885.16;;;27.48;24.70
54816;BME280;40715;55.752;37.884;2022-08-11T13:41:30;99864.16;;;27.41;24.32
54816;BME280;40715;55.752;37.884;2022-08-11T13:44:09;99875.47;;;27.55;24.55
54816;BME280;40715;55.752;37.884;2022-08-11T13:46:38;99881.00;;;27.44;24.65
54816;BME280;40715;55.752;37.884;2022-08-11T13:49:07;99868.53;;;27.32;24.73
54816;BME280;40715;55.752;37.884;2022-08-11T13:51:37;99872.38;;;27.29;24.78
54816;BME280;40715;55.752;37.884;2022-08-11T13:54:11;99876.63;;;27.32;24.50
54816;BME280;40715;55.752;37.884;2022-08-11T13:56:43;99877.66;;;27.31;24.46
54816;BME280;40715;55.752;37.884;2022-08-11T13:59:12;99863.06;;;27.22;24.80
54816;BME280;40715;55.752;37.884;2022-08-11T14:01:46;99873.88;;;27.22;24.46
54816;BME280;40715;55.752;37.884;2022-08-11T14:04:34;99870.88;;;27.15;24.41
54816;BME280;40715;55.752;37.884;2022-08-11T14:07:06;99836.34;;;26.98;24.75
54816;BME280;40715;55.752;37.884;2022-08-11T14:09:38;99863.19;;;27.11;24.69
54816;BME280;40715;55.752;37.884;2022-08-11T14:12:23;99857.03;;;27.09;24.71
54816;BME280;40715;55.752;37.884;2022-08-11T14:15:18;99855.47;;;27.06;25.14
54816;BME280;40715;55.752;37.884;2022-08-11T14:17:51;99850.31;;;27.03;24.95
54816;BME280;40715;55.752;37.884;2022-08-11T14:20:20;99854.75;;;27.04;25.11
54816;BME280;40715;55.752;37.884;2022-08-11T14:23:06;99858.28;;;27.04;24.72
54816;BME280;40715;55.752;37.884;2022-08-11T14:25:34;99855.59;;;27.04;24.66
54816;BME280;40715;55.752;37.884;2022-08-11T14:28:22;99854.75;;;27.04;24.72
54816;BME280;40715;55.752;37.884;2022-08-11T14:30:58;99852.94;;;27.14;24.44
54816;BME280;40715;55.752;37.884;2022-08-11T14:33:27;99847.63;;;27.03;24.64
54816;BME280;40715;55.752;37.884;2022-08-11T14:35:57;99838.25;;;27.07;24.92
54816;BME280;40715;55.752;37.884;2022-08-11T14:38:24;99835.53;;;27.07;24.76
54816;BME280;40715;55.752;37.884;2022-08-11T14:40:51;99834.56;;;27.08;24.46
54816;BME280;40715;55.752;37.884;2022-08-11T14:43:37;99835.53;;;27.07;24.70
54816;BME280;40715;55.752;37.884;2022-08-11T14:46:32;99834.84;;;27.05;24.52
54816;BME280;40715;55.752;37.884;2022-08-11T14:49:18;99831.41;;;27.03;24.59
54816;BME280;40715;55.752;37.884;2022-08-11T14:51:47;99820.25;;;26.96;24.64
54816;BME280;40715;55.752;37.884;2022-08-11T14:54:14;99832.13;;;27.05;24.86
54816;BME280;40715;55.752;37.884;2022-08-11T14:57:01;99822.72;;;26.99;24.62
54816;BME280;40715;55.752;37.884;2022-08-11T14:59:29;99823.28;;;27.03;24.79
54816;BME280;40715;55.752;37.884;2022-08-11T15:01:56;99819.41;;;26.96;24.82
54816;BME280;40715;55.752;37.884;2022-08-11T15:04:42;99810.53;;;26.84;24.90
54816;BME280;40715;55.752;37.884;2022-08-11T15:07:10;99836.22;;;26.99;24.67
54816;BME280;40715;55.752;37.884;2022-08-11T15:09:40;99801.81;;;26.80;24.86
54816;BME280;40715;55.752;37.884;2022-08-11T15:12:30;99822.38;;;26.93;25.27
54816;BME280;40715;55.752;37.884;2022-08-11T15:15:00;99825.22;;;26.91;25.11
54816;BME280;40715;55.752;37.884;2022-08-11T15:17:46;99829.66;;;26.92;25.29
54816;BME280;40715;55.752;37.884;2022-08-11T15:20:17;99831.63;;;26.90;25.40
54816;BME280;40715;55.752;37.884;2022-08-11T15:23:04;99833.63;;;26.88;25.45
54816;BME280;40715;55.752;37.884;2022-08-11T15:25:57;99827.47;;;26.86;25.76
54816;BME280;40715;55.752;37.884;2022-08-11T15:28:27;99828.59;;;26.83;25.55
54816;BME280;40715;55.752;37.884;2022-08-11T15:31:15;99823.84;;;26.76;25.43
54816;BME280;40715;55.752;37.884;2022-08-11T15:34:00;99831.69;;;26.79;25.68
54816;BME280;40715;55.752;37.884;2022-08-11T15:36:48;99831.97;;;26.76;25.57
54816;BME280;40715;55.752;37.884;2022-08-11T15:39:50;99829.53;;;26.73;25.37
54816;BME280;40715;55.752;37.884;2022-08-11T15:43:00;99827.59;;;26.63;25.89
54816;BME280;40715;55.752;37.884;2022-08-11T15:45:55;99814.47;;;26.59;25.68
54816;BME280;40715;55.752;37.884;2022-08-11T15:51:29;99826.41;;;26.56;25.89
54816;BME280;40715;55.752;37.884;2022-08-11T15:54:04;99831.22;;;26.52;25.72
54816;BME280;40715;55.752;37.884;2022-08-11T15:56:39;99797.34;;;26.27;25.97
54816;BME280;40715;55.752;37.884;2022-08-11T15:59:09;99822.31;;;26.41;26.12
54816;BME280;40715;55.752;37.884;2022-08-11T16:02:11;99826.16;;;26.38;26.37
54816;BME280;40715;55.752;37.884;2022-08-11T16:04:54;99832.81;;;26.34;26.28
54816;BME280;40715;55.752;37.884;2022-08-11T16:07:25;99832.19;;;26.30;26.99
54816;BME280;40715;55.752;37.884;2022-08-11T16:10:01;99824.22;;;26.29;27.13
54816;BME280;40715;55.752;37.884;2022-08-11T16:12:35;99819.63;;;26.20;27.00
54816;BME280;40715;55.752;37.884;2022-08-11T16:15:08;99821.31;;;26.21;26.88
54816;BME280;40715;55.752;37.884;2022-08-11T16:18:02;99820.75;;;26.17;27.09
54816;BME280;40715;55.752;37.884;2022-08-11T16:20:31;99818.25;;;26.25;27.01
54816;BME280;40715;55.752;37.884;2022-08-11T16:23:02;99819.66;;;26.29;26.70
54816;BME280;40715;55.752;37.884;2022-08-11T16:25:34;99824.09;;;26.30;26.86
54816;BME280;40715;55.752;37.884;2022-08-11T16:28:22;99821.25;;;26.32;26.74
54816;BME280;40715;55.752;37.884;2022-08-11T16:30:51;99819.22;;;26.24;27.06
54816;BME280;40715;55.752;37.884;2022-08-11T16:33:21;99823.31;;;26.18;27.10
54816;BME280;40715;55.752;37.884;2022-08-11T16:36:10;99825.53;;;26.13;27.29
54816;BME280;40715;55.752;37.884;2022-08-11T16:38:58;99817.22;;;26.05;27.09
54816;BME280;40715;55.752;37.884;2022-08-11T16:41:29;99818.94;;;25.95;27.22
54816;BME280;40715;55.752;37.884;2022-08-11T16:44:16;99816.41;;;25.82;27.59
54816;BME280;40715;55.752;37.884;2022-08-11T16:47:09;99822.31;;;25.76;27.66
54816;BME280;40715;55.752;37.884;2022-08-11T16:49:42;99817.69;;;25.66;28.00
54816;BME280;40715;55.752;37.884;2022-08-11T16:52:19;99822.47;;;25.63;28.09
54816;BME280;40715;55.752;37.884;2022-08-11T16:54:46;99832.53;;;25.61;28.04
54816;BME280;40715;55.752;37.884;2022-08-11T16:57:16;99818.69;;;25.54;28.08
54816;BME280;40715;55.752;37.884;2022-08-11T17:00:05;99822.63;;;25.50;28.12
54816;BME280;40715;55.752;37.884;2022-08-11T17:02:36;99824.13;;;25.43;28.11
54816;BME280;40715;55.752;37.884;2022-08-11T17:05:24;99827.41;;;25.35;27.80
54816;BME280;40715;55.752;37.884;2022-08-11T17:08:25;99831.44;;;25.29;28.34
54816;BME280;40715;55.752;37.884;2022-08-11T17:11:25;99827.25;;;25.25;28.12
54816;BME280;40715;55.752;37.884;2022-08-11T17:14:15;99828.41;;;25.23;28.33
54816;BME280;40715;55.752;37.884;2022-08-11T17:17:03;99831.22;;;25.21;28.39
54816;BME280;40715;55.752;37.884;2022-08-11T17:19:33;99833.16;;;25.19;28.98
54816;BME280;40715;55.752;37.884;2022-08-11T17:22:25;99839.53;;;25.18;28.67
54816;BME280;40715;55.752;37.884;2022-08-11T17:25:14;99833.66;;;25.13;29.07
54816;BME280;40715;55.752;37.884;2022-08-11T17:27:42;99828.28;;;25.02;29.08
54816;BME280;40715;55.752;37.884;2022-08-11T17:30:11;99827.50;;;24.88;29.46
54816;BME280;40715;55.752;37.884;2022-08-11T17:32:44;99830.69;;;24.82;29.63
54816;BME280;40715;55.752;37.884;2022-08-11T17:35:39;99833.75;;;24.77;29.71
54816;BME280;40715;55.752;37.884;2022-08-11T17:40:39;99836.56;;;24.64;29.89
54816;BME280;40715;55.752;37.884;2022-08-11T17:43:28;99840.91;;;24.54;30.34
54816;BME280;40715;55.752;37.884;2022-08-11T17:46:15;99846.63;;;24.50;30.64
54816;BME280;40715;55.752;37.884;2022-08-11T17:49:01;99839.19;;;24.53;30.07
54816;BME280;40715;55.752;37.884;2022-08-11T17:51:29;99824.19;;;24.26;31.24
54816;BME280;40715;55.752;37.884;2022-08-11T17:54:15;99844.38;;;24.32;30.94
54816;BME280;40715;55.752;37.884;2022-08-11T17:57:02;99858.50;;;24.36;31.38
54816;BME280;40715;55.752;37.884;2022-08-11T17:59:49;99854.69;;;24.38;31.56
54816;BME280;40715;55.752;37.884;2022-08-11T18:05:16;99857.72;;;24.34;31.15
54816;BME280;40715;55.752;37.884;2022-08-11T18:07:46;99847.56;;;24.26;31.66
54816;BME280;40715;55.752;37.884;2022-08-11T18:10:33;99861.91;;;24.38;31.89
54816;BME280;40715;55.752;37.884;2022-08-11T18:13:22;99854.31;;;24.32;31.75
54816;BME280;40715;55.752;37.884;2022-08-11T18:16:08;99849.25;;;24.27;31.99
54816;BME280;40715;55.752;37.884;2022-08-11T18:18:54;99837.59;;;24.15;31.79
54816;BME280;40715;55.752;37.884;2022-08-11T18:21:42;99870.78;;;24.27;32.25
54816;BME280;40715;55.752;37.884;2022-08-11T18:24:47;99862.22;;;24.22;31.97
54816;BME280;40715;55.752;37.884;2022-08-11T18:27:37;99869.94;;;24.26;31.95
54816;BME280;40715;55.752;37.884;2022-08-11T18:30:25;99873.59;;;24.25;31.96
54816;BME280;40715;55.752;37.884;2022-08-11T18:33:13;99861.59;;;24.18;32.22
54816;BME280;40715;55.752;37.884;2022-08-11T18:36:23;99867.09;;;24.17;32.38
54816;BME280;40715;55.752;37.884;2022-08-11T18:39:12;99873.66;;;24.12;32.47
54816;BME280;40715;55.752;37.884;2022-08-11T18:42:05;99874.78;;;24.10;32.56
54816;BME280;40715;55.752;37.884;2022-08-11T18:44:58;99873.72;;;24.00;32.37
54816;BME280;40715;55.752;37.884;2022-08-11T18:47:47;99883.88;;;23.96;32.58
54816;BME280;40715;55.752;37.884;2022-08-11T18:50:38;99879.03;;;23.88;32.26
54816;BME280;40715;55.752;37.884;2022-08-11T18:53:48;99878.75;;;23.80;32.75
54816;BME280;40715;55.752;37.884;2022-08-11T18:56:35;99882.94;;;23.71;33.09
54816;BME280;40715;55.752;37.884;2022-08-11T18:59:24;99885.34;;;23.63;33.27
54816;BME280;40715;55.752;37.884;2022-08-11T19:02:11;99893.84;;;23.57;33.51
54816;BME280;40715;55.752;37.884;2022-08-11T19:04:58;99889.03;;;23.49;33.82
54816;BME280;40715;55.752;37.884;2022-08-11T19:07:47;99887.75;;;23.42;33.81
54816;BME280;40715;55.752;37.884;2022-08-11T19:10:34;99892.47;;;23.38;34.03
54816;BME280;40715;55.752;37.884;2022-08-11T19:13:20;99885.59;;;23.34;34.34
54816;BME280;40715;55.752;37.884;2022-08-11T19:16:10;99885.94;;;23.30;34.58
54816;BME280;40715;55.752;37.884;2022-08-11T19:18:57;99889.19;;;23.22;34.49
54816;BME280;40715;55.752;37.884;2022-08-11T19:21:44;99893.91;;;23.18;34.30
54816;BME280;40715;55.752;37.884;2022-08-11T19:24:30;99891.22;;;23.18;33.82
54816;BME280;40715;55.752;37.884;2022-08-11T19:27:18;99889.06;;;22.98;34.44
54816;BME280;40715;55.752;37.884;2022-08-11T19:30:04;99887.44;;;22.95;34.49
54816;BME280;40715;55.752;37.884;2022-08-11T19:32:50;99902.91;;;22.91;34.70
54816;BME280;40715;55.752;37.884;2022-08-11T19:35:37;99896.78;;;22.89;35.09
54816;BME280;40715;55.752;37.884;2022-08-11T19:38:23;99893.44;;;22.86;35.04
54816;BME280;40715;55.752;37.884;2022-08-11T19:41:11;99895.50;;;22.82;35.45
54816;BME280;40715;55.752;37.884;2022-08-11T19:44:19;99890.97;;;22.83;35.79
54816;BME280;40715;55.752;37.884;2022-08-11T19:47:06;99888.28;;;22.83;35.50
54816;BME280;40715;55.752;37.884;2022-08-11T19:49:53;99901.19;;;22.90;35.83
54816;BME280;40715;55.752;37.884;2022-08-11T19:52:43;99905.59;;;22.91;35.48
54816;BME280;40715;55.752;37.884;2022-08-11T19:55:29;99875.16;;;22.65;35.62
54816;BME280;40715;55.752;37.884;2022-08-11T19:58:16;99899.78;;;22.85;35.79
54816;BME280;40715;55.752;37.884;2022-08-11T20:01:03;99912.66;;;22.80;35.65
54816;BME280;40715;55.752;37.884;2022-08-11T20:03:49;99910.31;;;22.75;35.59
54816;BME280;40715;55.752;37.884;2022-08-11T20:06:35;99878.88;;;22.50;36.27
54816;BME280;40715;55.752;37.884;2022-08-11T20:09:22;99919.66;;;22.69;36.30
54816;BME280;40715;55.752;37.884;2022-08-11T20:12:27;99902.88;;;22.66;36.72
54816;BME280;40715;55.752;37.884;2022-08-11T20:15:17;99912.66;;;22.67;36.25
54816;BME280;40715;55.752;37.884;2022-08-11T20:18:05;99912.97;;;22.62;36.34
54816;BME280;40715;55.752;37.884;2022-08-11T20:20:54;99914.34;;;22.55;36.47
54816;BME280;40715;55.752;37.884;2022-08-11T20:23:43;99911.00;;;22.51;36.60
54816;BME280;40715;55.752;37.884;2022-08-11T20:26:34;99904.13;;;22.47;36.57
54816;BME280;40715;55.752;37.884;2022-08-11T20:29:26;99900.69;;;22.45;36.61
54816;BME280;40715;55.752;37.884;2022-08-11T20:32:12;99910.00;;;22.39;36.62
54816;BME280;40715;55.752;37.884;2022-08-11T20:34:59;99904.38;;;22.30;36.69
54816;BME280;40715;55.752;37.884;2022-08-11T20:37:46;99909.63;;;22.31;36.84
54816;BME280;40715;55.752;37.884;2022-08-11T20:40:38;99915.81;;;22.33;37.08
54816;BME280;40715;55.752;37.884;2022-08-11T20:43:24;99903.78;;;22.24;37.29
54816;BME280;40715;55.752;37.884;2022-08-11T20:46:30;99915.00;;;22.31;37.02
54816;BME280;40715;55.752;37.884;2022-08-11T20:49:17;99915.00;;;22.31;37.25
54816;BME280;40715;55.752;37.884;2022-08-11T20:52:07;99910.47;;;22.32;37.31
54816;BME280;40715;55.752;37.884;2022-08-11T20:54:53;99915.59;;;22.36;37.17
54816;BME280;40715;55.752;37.884;2022-08-11T20:57:45;99914.53;;;22.39;37.23
54816;BME280;40715;55.752;37.884;2022-08-11T21:00:33;99918.19;;;22.38;37.03
54816;BME280;40715;55.752;37.884;2022-08-11T21:03:19;99923.66;;;22.36;37.15
54816;BME280;40715;55.752;37.884;2022-08-11T21:06:12;99921.72;;;22.38;37.39
54816;BME280;40715;55.752;37.884;2022-08-11T21:09:02;99923.66;;;22.36;37.02
54816;BME280;40715;55.752;37.884;2022-08-11T21:12:09;99921.81;;;22.37;37.13
54816;BME280;40715;55.752;37.884;2022-08-11T21:14:57;99933.31;;;22.39;37.05
54816;BME280;40715;55.752;37.884;2022-08-11T21:17:48;99902.94;;;22.24;37.13
54816;BME280;40715;55.752;37.884;2022-08-11T21:20:38;99920.97;;;22.36;37.07
54816;BME280;40715;55.752;37.884;2022-08-11T21:23:29;99920.38;;;22.31;37.14
54816;BME280;40715;55.752;37.884;2022-08-11T21:26:19;99931.03;;;22.33;37.24
54816;BME280;40715;55.752;37.884;2022-08-11T21:29:07;99931.19;;;22.30;37.27
54816;BME280;40715;55.752;37.884;2022-08-11T21:31:55;99929.88;;;22.22;37.22
54816;BME280;40715;55.752;37.884;2022-08-11T21:34:41;99933.63;;;22.20;37.31
54816;BME280;40715;55.752;37.884;2022-08-11T21:37:29;99941.03;;;22.16;37.50
54816;BME280;40715;55.752;37.884;2022-08-11T21:40:17;99946.78;;;22.10;37.73
54816;BME280;40715;55.752;37.884;2022-08-11T21:43:04;99949.88;;;22.04;38.16
54816;BME280;40715;55.752;37.884;2022-08-11T21:45:51;99951.03;;;22.00;38.35
54816;BME280;40715;55.752;37.884;2022-08-11T21:48:38;99922.81;;;21.80;37.89
54816;BME280;40715;55.752;37.884;2022-08-11T21:51:24;99957.75;;;21.93;38.37
54816;BME280;40715;55.752;37.884;2022-08-11T21:54:11;99951.16;;;21.84;38.55
54816;BME280;40715;55.752;37.884;2022-08-11T21:56:58;99946.97;;;21.80;38.71
54816;BME280;40715;55.752;37.884;2022-08-11T21:59:49;99951.06;;;21.85;38.16
54816;BME280;40715;55.752;37.884;2022-08-11T22:02:37;99940.84;;;21.63;38.74
54816;BME280;40715;55.752;37.884;2022-08-11T22:05:24;99948.88;;;21.63;38.85
54816;BME280;40715;55.752;37.884;2022-08-11T22:08:11;99955.50;;;21.58;39.11
54816;BME280;40715;55.752;37.884;2022-08-11T22:10:57;99942.66;;;21.48;39.30
54816;BME280;40715;55.752;37.884;2022-08-11T22:14:00;99939.38;;;21.43;39.16
54816;BME280;40715;55.752;37.884;2022-08-11T22:16:46;99961.41;;;21.48;39.38
54816;BME280;40715;55.752;37.884;2022-08-11T22:19:33;99954.72;;;21.41;39.64
54816;BME280;40715;55.752;37.884;2022-08-11T22:22:21;99954.03;;;21.37;39.70
54816;BME280;40715;55.752;37.884;2022-08-11T22:25:17;99952.59;;;21.32;39.93
54816;BME280;40715;55.752;37.884;2022-08-11T22:28:04;99948.56;;;21.25;40.04
54816;BME280;40715;55.752;37.884;2022-08-11T22:30:50;99960.06;;;21.27;40.13
54816;BME280;40715;55.752;37.884;2022-08-11T22:33:35;99949.53;;;21.24;40.47
54816;BME280;40715;55.752;37.884;2022-08-11T22:36:28;99957.69;;;21.22;40.50
54816;BME280;40715;55.752;37.884;2022-08-11T22:39:14;99958.91;;;21.16;40.57
54816;BME280;40715;55.752;37.884;2022-08-11T22:42:00;99962.44;;;21.17;40.57
54816;BME280;40715;55.752;37.884;2022-08-11T22:44:49;99959.94;;;21.14;40.54
54816;BME280;40715;55.752;37.884;2022-08-11T22:47:35;99970.97;;;21.09;40.74
54816;BME280;40715;55.752;37.884;2022-08-11T22:50:21;99962.31;;;21.04;40.63
54816;BME280;40715;55.752;37.884;2022-08-11T22:53:06;99962.78;;;20.96;40.86
54816;BME280;40715;55.752;37.884;2022-08-11T22:55:52;99971.78;;;20.95;41.09
54816;BME280;40715;55.752;37.884;2022-08-11T22:58:38;99972.72;;;20.94;41.53